createdAt,value
2019-02-25T00:01:02.156Z,0
2019-02-25T00:02:12.074Z,0
2019-02-25T00:03:21.989Z,0
2019-02-25T00:04:31.659Z,0
2019-02-25T00:05:41.441Z,0
2019-02-25T00:06:51.359Z,0
2019-02-25T00:08:01.275Z,0
2019-02-25T00:09:11.216Z,0
2019-02-25T00:10:21.183Z,0
2019-02-25T00:11:31.255Z,0
2019-02-25T00:12:41.172Z,0
2019-02-25T00:13:51.090Z,0
2019-02-25T00:15:01.007Z,0
2019-02-25T00:16:11.957Z,0
2019-02-25T00:17:21.941Z,0
2019-02-25T00:18:31.871Z,0
2019-02-25T00:19:41.788Z,0
2019-02-25T00:20:51.709Z,0
2019-02-25T00:22:01.630Z,0
2019-02-25T00:23:11.551Z,0
2019-02-25T00:24:21.466Z,0
2019-02-25T00:25:31.132Z,0
2019-02-25T00:26:41.049Z,0
2019-02-25T00:27:50.975Z,0
2019-02-25T00:29:00.891Z,0
2019-02-25T00:30:10.810Z,0
2019-02-25T00:31:20.726Z,0
2019-02-25T00:32:30.647Z,0
2019-02-25T00:33:40.561Z,0
2019-02-25T00:34:50.577Z,0
2019-02-25T00:36:00.544Z,0
2019-02-25T00:37:10.464Z,0
2019-02-25T00:38:20.380Z,0
2019-02-25T00:39:30.296Z,0
2019-02-25T00:40:40.211Z,0
2019-02-25T00:41:50.130Z,0
2019-02-25T00:43:00.052Z,0
2019-02-25T00:44:10.031Z,0
2019-02-25T00:45:19.952Z,0
2019-02-25T00:46:29.975Z,0
2019-02-25T00:47:39.891Z,0
2019-02-25T00:48:49.812Z,0
2019-02-25T00:49:59.738Z,0
2019-02-25T00:51:09.657Z,0
2019-02-25T00:52:19.575Z,0
2019-02-25T00:53:29.498Z,0
2019-02-25T00:54:39.422Z,0
2019-02-25T00:55:49.345Z,0
2019-02-25T00:56:59.013Z,0
2019-02-25T00:58:09.089Z,0
2019-02-25T00:59:19.007Z,0
2019-02-25T01:00:28.933Z,0
2019-02-25T01:01:38.605Z,0
2019-02-25T01:02:48.536Z,0
2019-02-25T01:03:58.515Z,0
2019-02-25T01:05:08.439Z,0
2019-02-25T01:06:18.409Z,0
2019-02-25T01:07:28.083Z,0
2019-02-25T01:08:38.020Z,0
2019-02-25T01:09:48.099Z,0
2019-02-25T01:10:58.017Z,0
2019-02-25T01:12:07.942Z,0
2019-02-25T01:13:17.864Z,0
2019-02-25T01:14:27.784Z,0
2019-02-25T01:15:37.803Z,0
2019-02-25T01:16:47.727Z,0
2019-02-25T01:17:57.650Z,0
2019-02-25T01:19:07.574Z,0
2019-02-25T01:20:17.561Z,0
2019-02-25T01:21:27.584Z,0
2019-02-25T01:22:37.508Z,0
2019-02-25T01:23:48.870Z,0
2019-02-25T01:24:58.941Z,0
2019-02-25T01:26:08.860Z,0
2019-02-25T01:27:18.878Z,0
2019-02-25T01:28:28.795Z,0
2019-02-25T01:29:38.720Z,0
2019-02-25T01:30:48.652Z,0
2019-02-25T01:31:58.570Z,0
2019-02-25T01:33:08.345Z,0
2019-02-25T01:34:18.266Z,0
2019-02-25T01:35:28.187Z,0
2019-02-25T01:36:38.139Z,0
2019-02-25T01:37:48.059Z,0
2019-02-25T01:38:57.990Z,0
2019-02-25T01:40:07.656Z,0
2019-02-25T01:41:17.579Z,0
2019-02-25T01:42:27.254Z,0
2019-02-25T01:43:37.209Z,0
2019-02-25T01:44:47.227Z,0
2019-02-25T01:45:57.149Z,0
2019-02-25T01:47:07.068Z,0
2019-02-25T01:48:16.985Z,0
2019-02-25T01:49:26.946Z,0
2019-02-25T01:50:36.864Z,0
2019-02-25T01:51:46.792Z,0
2019-02-25T01:52:56.709Z,0
2019-02-25T01:54:06.642Z,0
2019-02-25T01:55:16.566Z,0
2019-02-25T01:56:26.487Z,0
2019-02-25T01:57:36.408Z,0
2019-02-25T01:58:46.331Z,0
2019-02-25T01:59:56.252Z,0
2019-02-25T02:01:06.170Z,0
2019-02-25T02:02:16.092Z,0
2019-02-25T02:03:26.013Z,0
2019-02-25T02:04:35.942Z,0
2019-02-25T02:05:45.867Z,0
2019-02-25T02:06:55.786Z,0
2019-02-25T02:08:05.706Z,0
2019-02-25T02:09:15.631Z,0
2019-02-25T02:10:25.303Z,0
2019-02-25T02:11:35.223Z,0
2019-02-25T02:12:45.169Z,0
2019-02-25T02:13:55.213Z,0
2019-02-25T02:15:05.136Z,0
2019-02-25T02:16:15.057Z,0
2019-02-25T02:17:24.984Z,0
2019-02-25T02:18:34.903Z,0
2019-02-25T02:19:44.922Z,0
2019-02-25T02:20:54.840Z,0
2019-02-25T02:22:04.757Z,0
2019-02-25T02:23:14.677Z,0
2019-02-25T02:24:24.598Z,0
2019-02-25T02:25:34.516Z,0
2019-02-25T02:26:44.187Z,0
2019-02-25T02:27:54.109Z,0
2019-02-25T02:29:04.031Z,0
2019-02-25T02:30:13.974Z,0
2019-02-25T02:31:23.909Z,0
2019-02-25T02:32:33.880Z,0
2019-02-25T02:33:43.807Z,0
2019-02-25T02:34:53.745Z,0
2019-02-25T02:36:03.673Z,0
2019-02-25T02:37:13.597Z,0
2019-02-25T02:38:23.533Z,0
2019-02-25T02:39:33.471Z,0
2019-02-25T02:40:43.412Z,0
2019-02-25T02:41:53.344Z,0
2019-02-25T02:43:03.266Z,0
2019-02-25T02:44:13.188Z,0
2019-02-25T02:45:23.119Z,0
2019-02-25T02:46:33.033Z,0
2019-02-25T02:47:42.960Z,0
2019-02-25T02:48:53.012Z,0
2019-02-25T02:50:02.931Z,0
2019-02-25T02:51:12.860Z,0
2019-02-25T02:52:22.786Z,0
2019-02-25T02:53:32.725Z,0
2019-02-25T02:54:42.748Z,0
2019-02-25T02:55:52.673Z,0
2019-02-25T02:57:02.601Z,0
2019-02-25T02:58:12.527Z,0
2019-02-25T02:59:22.455Z,0
2019-02-25T03:00:32.395Z,0
2019-02-25T03:01:42.317Z,0
2019-02-25T03:02:52.266Z,0
2019-02-25T03:04:02.192Z,0
2019-02-25T03:05:12.124Z,0
2019-02-25T03:06:22.162Z,0
2019-02-25T03:07:32.087Z,0
2019-02-25T03:08:42.013Z,0
2019-02-25T03:09:51.939Z,0
2019-02-25T03:11:01.858Z,0
2019-02-25T03:12:11.786Z,0
2019-02-25T03:13:21.820Z,0
2019-02-25T03:14:31.743Z,0
2019-02-25T03:15:41.409Z,0
2019-02-25T03:16:51.337Z,0
2019-02-25T03:18:01.270Z,0
2019-02-25T03:19:11.217Z,0
2019-02-25T03:20:21.141Z,0
2019-02-25T03:21:31.059Z,0
2019-02-25T03:22:40.975Z,0
2019-02-25T03:23:50.954Z,0
2019-02-25T03:25:00.883Z,0
2019-02-25T03:26:10.823Z,0
2019-02-25T03:27:20.499Z,0
2019-02-25T03:28:30.423Z,0
2019-02-25T03:29:40.097Z,0
2019-02-25T03:30:50.067Z,0
2019-02-25T03:32:00.036Z,0
2019-02-25T03:33:10.084Z,0
2019-02-25T03:34:20.074Z,0
2019-02-25T03:35:30.111Z,0
2019-02-25T03:36:40.028Z,0
2019-02-25T03:37:49.975Z,0
2019-02-25T03:38:59.905Z,0
2019-02-25T03:40:09.948Z,0
2019-02-25T03:41:19.883Z,0
2019-02-25T03:42:29.820Z,0
2019-02-25T03:43:39.500Z,0
2019-02-25T03:44:49.419Z,0
2019-02-25T03:45:59.362Z,0
2019-02-25T03:47:09.281Z,0
2019-02-25T03:48:18.957Z,0
2019-02-25T03:49:28.880Z,0
2019-02-25T03:50:38.803Z,0
2019-02-25T03:51:48.739Z,0
2019-02-25T03:52:58.760Z,0
2019-02-25T03:54:08.674Z,0
2019-02-25T03:55:18.606Z,0
2019-02-25T03:56:28.611Z,0
2019-02-25T03:57:40.928Z,0
2019-02-25T03:58:50.862Z,0
2019-02-25T04:00:00.782Z,0
2019-02-25T04:01:10.721Z,0
2019-02-25T04:02:20.664Z,0
2019-02-25T04:03:30.611Z,0
2019-02-25T04:04:40.535Z,0
2019-02-25T04:05:50.227Z,0
2019-02-25T04:07:00.164Z,0
2019-02-25T04:08:10.106Z,0
2019-02-25T04:09:19.830Z,0
2019-02-25T04:10:29.797Z,0
2019-02-25T04:11:39.720Z,0
2019-02-25T04:12:49.657Z,0
2019-02-25T04:13:59.573Z,0
2019-02-25T04:15:09.497Z,0
2019-02-25T04:16:19.625Z,0
2019-02-25T04:17:29.544Z,0
2019-02-25T04:18:39.466Z,0
2019-02-25T04:19:49.391Z,0
2019-02-25T04:20:59.330Z,0
2019-02-25T04:22:09.354Z,0
2019-02-25T04:23:19.278Z,0
2019-02-25T04:24:29.207Z,0
2019-02-25T04:25:39.130Z,0
2019-02-25T04:26:49.049Z,0
2019-02-25T04:27:59.074Z,0
2019-02-25T04:29:09.011Z,0
2019-02-25T04:30:18.704Z,0
2019-02-25T04:31:28.633Z,0
2019-02-25T04:32:38.307Z,0
2019-02-25T04:33:48.361Z,0
2019-02-25T04:34:58.292Z,0
2019-02-25T04:36:08.275Z,0
2019-02-25T04:37:18.201Z,0
2019-02-25T04:38:28.138Z,0
2019-02-25T04:39:38.066Z,0
2019-02-25T04:40:47.990Z,0
2019-02-25T04:41:57.936Z,0
2019-02-25T04:43:07.866Z,0
2019-02-25T04:44:17.782Z,0
2019-02-25T04:45:27.825Z,0
2019-02-25T04:46:37.743Z,0
2019-02-25T04:47:47.710Z,0
2019-02-25T04:48:57.645Z,0
2019-02-25T04:50:07.585Z,0
2019-02-25T04:51:17.530Z,0
2019-02-25T04:52:27.467Z,0
2019-02-25T04:53:37.398Z,0
2019-02-25T04:54:47.323Z,0
2019-02-25T04:55:57.262Z,0
2019-02-25T04:57:07.281Z,0
2019-02-25T04:58:17.203Z,0
2019-02-25T04:59:27.129Z,0
2019-02-25T05:00:37.068Z,0
2019-02-25T05:01:46.991Z,0
2019-02-25T05:02:56.926Z,0
2019-02-25T05:04:06.853Z,0
2019-02-25T05:05:16.788Z,0
2019-02-25T05:06:26.717Z,0
2019-02-25T05:07:36.642Z,0
2019-02-25T05:08:46.680Z,0
2019-02-25T05:09:56.628Z,0
2019-02-25T05:11:06.575Z,0
2019-02-25T05:12:16.515Z,0
2019-02-25T05:13:26.459Z,0
2019-02-25T05:14:36.486Z,0
2019-02-25T05:15:46.410Z,0
2019-02-25T05:16:56.337Z,0
2019-02-25T05:18:06.270Z,0
2019-02-25T05:19:15.937Z,0
2019-02-25T05:20:25.607Z,0
2019-02-25T05:21:35.529Z,0
2019-02-25T05:22:47.269Z,0
2019-02-25T05:23:57.271Z,0
2019-02-25T05:25:07.383Z,0
2019-02-25T05:26:17.414Z,0
2019-02-25T05:27:27.350Z,0
2019-02-25T05:28:37.289Z,0
2019-02-25T05:29:47.217Z,0
2019-02-25T05:30:57.159Z,0
2019-02-25T05:32:07.091Z,0
2019-02-25T05:33:17.033Z,0
2019-02-25T05:34:26.986Z,0
2019-02-25T05:35:36.932Z,0
2019-02-25T05:36:46.856Z,0
2019-02-25T05:37:56.883Z,0
2019-02-25T05:39:08.391Z,0
2019-02-25T05:40:18.367Z,0
2019-02-25T05:41:28.299Z,0
2019-02-25T05:42:38.252Z,0
2019-02-25T05:43:48.197Z,0
2019-02-25T05:44:58.137Z,0
2019-02-25T05:46:08.070Z,0
2019-02-25T05:47:18.000Z,0
2019-02-25T05:48:27.919Z,0
2019-02-25T05:49:37.847Z,0
2019-02-25T05:50:49.565Z,0
2019-02-25T05:51:59.577Z,0
2019-02-25T05:53:09.555Z,0
2019-02-25T05:54:19.479Z,0
2019-02-25T05:55:29.514Z,0
2019-02-25T05:56:39.448Z,0
2019-02-25T05:57:49.375Z,0
2019-02-25T05:58:59.298Z,0
2019-02-25T06:00:09.222Z,0
2019-02-25T06:01:19.155Z,0
2019-02-25T06:02:29.080Z,0
2019-02-25T06:03:39.011Z,0
2019-02-25T06:04:48.947Z,0
2019-02-25T06:05:58.873Z,0
2019-02-25T06:07:10.392Z,0
2019-02-25T06:08:20.528Z,0
2019-02-25T06:09:30.451Z,0
2019-02-25T06:10:40.375Z,0
2019-02-25T06:11:50.304Z,0
2019-02-25T06:13:00.229Z,0
2019-02-25T06:14:10.158Z,0
2019-02-25T06:15:20.096Z,0
2019-02-25T06:16:30.040Z,0
2019-02-25T06:17:39.969Z,0
2019-02-25T06:18:49.897Z,0
2019-02-25T06:19:59.846Z,0
2019-02-25T06:21:09.788Z,0
2019-02-25T06:22:19.709Z,0
2019-02-25T06:23:29.635Z,5
2019-02-25T06:24:39.655Z,5
2019-02-25T06:25:49.582Z,5
2019-02-25T06:26:59.505Z,5
2019-02-25T06:28:09.429Z,5
2019-02-25T06:29:19.399Z,5
2019-02-25T06:30:29.430Z,5
2019-02-25T06:31:39.362Z,5
2019-02-25T06:32:49.303Z,10
2019-02-25T06:33:59.225Z,10
2019-02-25T06:35:09.158Z,10
2019-02-25T06:36:19.187Z,10
2019-02-25T06:37:28.876Z,10
2019-02-25T06:38:38.808Z,15
2019-02-25T06:39:48.736Z,15
2019-02-25T06:40:58.667Z,15
2019-02-25T06:42:08.693Z,15
2019-02-25T06:43:18.613Z,20
2019-02-25T06:44:28.527Z,20
2019-02-25T06:45:40.698Z,20
2019-02-25T06:46:50.621Z,20
2019-02-25T06:48:00.562Z,20
2019-02-25T06:49:10.480Z,25
2019-02-25T06:50:20.411Z,25
2019-02-25T06:51:30.336Z,25
2019-02-25T06:52:40.265Z,30
2019-02-25T06:53:50.192Z,35
2019-02-25T06:55:00.143Z,35
2019-02-25T06:56:10.184Z,40
2019-02-25T06:57:20.106Z,45
2019-02-25T06:58:30.418Z,45
2019-02-25T06:59:40.337Z,45
2019-02-25T07:00:50.263Z,45
2019-02-25T07:02:00.189Z,45
2019-02-25T07:03:10.105Z,45
2019-02-25T07:04:20.031Z,45
2019-02-25T07:05:30.049Z,45
2019-02-25T07:06:39.971Z,45
2019-02-25T07:07:49.890Z,50
2019-02-25T07:08:59.822Z,50
2019-02-25T07:10:09.889Z,55
2019-02-25T07:11:19.813Z,55
2019-02-25T07:12:29.757Z,60
2019-02-25T07:13:39.701Z,60
2019-02-25T07:14:49.955Z,65
2019-02-25T07:15:59.887Z,65
2019-02-25T07:17:09.871Z,65
2019-02-25T07:18:19.789Z,70
2019-02-25T07:19:29.713Z,70
2019-02-25T07:20:39.647Z,70
2019-02-25T07:21:49.574Z,70
2019-02-25T07:22:59.542Z,75
2019-02-25T07:24:09.523Z,80
2019-02-25T07:25:19.461Z,85
2019-02-25T07:26:30.066Z,85
2019-02-25T07:27:41.863Z,85
2019-02-25T07:28:51.932Z,85
2019-02-25T07:30:01.857Z,85
2019-02-25T07:31:11.773Z,85
2019-02-25T07:32:21.690Z,85
2019-02-25T07:33:31.667Z,85
2019-02-25T07:34:41.730Z,85
2019-02-25T07:35:51.434Z,85
2019-02-25T07:37:01.358Z,85
2019-02-25T07:38:11.288Z,85
2019-02-25T07:39:21.290Z,90
2019-02-25T07:40:31.262Z,90
2019-02-25T07:41:43.022Z,90
2019-02-25T07:42:52.948Z,95
2019-02-25T07:44:02.877Z,95
2019-02-25T07:45:12.795Z,100
2019-02-25T07:46:22.764Z,105
2019-02-25T07:47:32.688Z,100
2019-02-25T07:48:44.766Z,105
2019-02-25T07:49:54.693Z,105
2019-02-25T07:51:04.670Z,105
2019-02-25T07:52:14.645Z,105
2019-02-25T07:53:24.562Z,105
2019-02-25T07:54:34.480Z,110
2019-02-25T07:55:44.399Z,110
2019-02-25T07:56:54.319Z,110
2019-02-25T07:58:04.355Z,115
2019-02-25T07:59:14.277Z,115
2019-02-25T08:00:24.202Z,120
2019-02-25T08:01:34.130Z,125
2019-02-25T08:02:44.048Z,125
2019-02-25T08:03:54.017Z,130
2019-02-25T08:05:03.941Z,135
2019-02-25T08:06:14.488Z,140
2019-02-25T08:07:24.419Z,145
2019-02-25T08:08:34.341Z,145
2019-02-25T08:09:44.315Z,150
2019-02-25T08:10:54.231Z,155
2019-02-25T08:12:04.154Z,155
2019-02-25T08:13:14.076Z,160
2019-02-25T08:14:23.996Z,160
2019-02-25T08:15:34.071Z,165
2019-02-25T08:16:43.990Z,170
2019-02-25T08:17:53.919Z,175
2019-02-25T08:19:03.839Z,180
2019-02-25T08:20:13.765Z,190
2019-02-25T08:21:23.795Z,195
2019-02-25T08:22:33.728Z,200
2019-02-25T08:23:43.649Z,200
2019-02-25T08:24:53.565Z,205
2019-02-25T08:26:03.526Z,205
2019-02-25T08:27:13.503Z,205
2019-02-25T08:28:23.424Z,210
2019-02-25T08:29:33.348Z,210
2019-02-25T08:30:43.269Z,210
2019-02-25T08:31:53.200Z,205
2019-02-25T08:33:03.201Z,205
2019-02-25T08:34:21.086Z,200
2019-02-25T08:35:30.762Z,200
2019-02-25T08:36:42.394Z,205
2019-02-25T08:37:52.317Z,210
2019-02-25T08:39:02.287Z,215
2019-02-25T08:40:14.055Z,215
2019-02-25T08:41:23.978Z,220
2019-02-25T08:42:35.843Z,230
2019-02-25T08:43:45.800Z,240
2019-02-25T08:44:55.767Z,245
2019-02-25T08:46:05.689Z,255
2019-02-25T08:47:15.365Z,255
2019-02-25T08:48:25.288Z,260
2019-02-25T08:49:35.210Z,260
2019-02-25T08:50:45.229Z,260
2019-02-25T08:51:55.155Z,260
2019-02-25T08:53:05.135Z,260
2019-02-25T08:54:15.069Z,250
2019-02-25T08:55:24.990Z,260
2019-02-25T08:56:35.065Z,245
2019-02-25T08:57:45.004Z,240
2019-02-25T08:58:54.943Z,235
2019-02-25T09:00:04.868Z,230
2019-02-25T09:01:15.510Z,220
2019-02-25T09:02:25.648Z,205
2019-02-25T09:03:35.584Z,195
2019-02-25T09:04:45.517Z,190
2019-02-25T09:05:55.468Z,190
2019-02-25T09:07:05.151Z,190
2019-02-25T09:08:15.156Z,190
2019-02-25T09:09:25.095Z,200
2019-02-25T09:10:35.019Z,200
2019-02-25T09:11:44.980Z,210
2019-02-25T09:12:56.150Z,225
2019-02-25T09:14:06.173Z,240
2019-02-25T09:15:15.884Z,250
2019-02-25T09:16:25.831Z,260
2019-02-25T09:17:35.751Z,270
2019-02-25T09:18:45.675Z,290
2019-02-25T09:19:55.671Z,305
2019-02-25T09:21:05.593Z,320
2019-02-25T09:22:15.515Z,335
2019-02-25T09:23:25.434Z,340
2019-02-25T09:24:35.355Z,340
2019-02-25T09:25:45.376Z,335
2019-02-25T09:26:55.303Z,335
2019-02-25T09:28:05.223Z,325
2019-02-25T09:29:15.151Z,305
2019-02-25T09:30:25.077Z,305
2019-02-25T09:31:35.108Z,305
2019-02-25T09:32:45.053Z,305
2019-02-25T09:33:54.976Z,295
2019-02-25T09:35:05.040Z,290
2019-02-25T09:36:14.967Z,285
2019-02-25T09:37:25.004Z,285
2019-02-25T09:38:34.927Z,285
2019-02-25T09:39:44.847Z,280
2019-02-25T09:40:54.772Z,285
2019-02-25T09:42:06.639Z,290
2019-02-25T09:43:16.560Z,290
2019-02-25T09:44:26.487Z,285
2019-02-25T09:45:36.410Z,295
2019-02-25T09:46:46.342Z,285
2019-02-25T09:47:56.285Z,290
2019-02-25T09:49:06.261Z,290
2019-02-25T09:50:16.188Z,275
2019-02-25T09:51:26.113Z,275
2019-02-25T09:52:36.043Z,285
2019-02-25T09:53:45.969Z,285
2019-02-25T09:54:55.701Z,295
2019-02-25T09:56:05.631Z,325
2019-02-25T09:57:15.562Z,360
2019-02-25T09:58:25.488Z,400
2019-02-25T09:59:35.416Z,420
2019-02-25T10:00:46.144Z,450
2019-02-25T10:01:56.213Z,465
2019-02-25T10:03:06.154Z,470
2019-02-25T10:04:18.234Z,430
2019-02-25T10:05:28.155Z,455
2019-02-25T10:06:38.204Z,465
2019-02-25T10:07:48.131Z,470
2019-02-25T10:08:58.065Z,445
2019-02-25T10:10:08.081Z,410
2019-02-25T10:11:18.008Z,410
2019-02-25T10:12:28.079Z,410
2019-02-25T10:13:38.040Z,405
2019-02-25T10:14:49.482Z,400
2019-02-25T10:15:59.547Z,375
2019-02-25T10:17:09.503Z,355
2019-02-25T10:18:19.476Z,335
2019-02-25T10:19:29.404Z,325
2019-02-25T10:20:39.333Z,315
2019-02-25T10:21:49.263Z,300
2019-02-25T10:22:59.184Z,300
2019-02-25T10:24:09.210Z,295
2019-02-25T10:25:19.165Z,305
2019-02-25T10:26:29.093Z,315
2019-02-25T10:27:39.038Z,330
2019-02-25T10:28:48.965Z,335
2019-02-25T10:29:58.995Z,325
2019-02-25T10:31:08.923Z,315
2019-02-25T10:32:18.847Z,310
2019-02-25T10:33:28.774Z,305
2019-02-25T10:34:38.698Z,300
2019-02-25T10:35:48.672Z,300
2019-02-25T10:37:00.284Z,300
2019-02-25T10:38:12.228Z,290
2019-02-25T10:39:26.849Z,295
2019-02-25T10:40:37.196Z,325
2019-02-25T10:41:47.233Z,355
2019-02-25T10:42:57.159Z,355
2019-02-25T10:44:13.173Z,330
2019-02-25T10:45:23.154Z,315
2019-02-25T10:46:33.078Z,320
2019-02-25T10:47:46.593Z,320
2019-02-25T10:49:13.751Z,320
2019-02-25T10:50:23.676Z,310
2019-02-25T10:51:35.061Z,300
2019-02-25T10:53:02.916Z,280
2019-02-25T10:54:14.399Z,280
2019-02-25T10:55:24.610Z,275
2019-02-25T10:56:35.529Z,270
2019-02-25T10:57:45.547Z,255
2019-02-25T10:58:55.465Z,250
2019-02-25T11:00:11.536Z,250
2019-02-25T11:01:29.449Z,265
2019-02-25T11:02:53.269Z,275
2019-02-25T11:04:03.909Z,280
2019-02-25T11:05:13.834Z,270
2019-02-25T11:06:24.985Z,260
2019-02-25T11:07:43.919Z,265
2019-02-25T11:08:55.320Z,270
2019-02-25T11:10:05.249Z,275
2019-02-25T11:11:16.280Z,275
2019-02-25T11:12:32.463Z,275
2019-02-25T11:13:46.057Z,270
2019-02-25T11:14:55.984Z,265
2019-02-25T11:16:05.918Z,255
2019-02-25T11:17:18.616Z,230
2019-02-25T11:18:35.453Z,225
2019-02-25T11:19:45.477Z,235
2019-02-25T11:20:55.151Z,250
2019-02-25T11:22:05.449Z,260
2019-02-25T11:23:24.001Z,270
2019-02-25T11:24:35.047Z,275
2019-02-25T11:25:44.975Z,280
2019-02-25T11:26:56.727Z,275
2019-02-25T11:28:23.499Z,280
2019-02-25T11:29:35.515Z,285
2019-02-25T11:30:53.280Z,295
2019-02-25T11:32:05.173Z,310
2019-02-25T11:33:14.858Z,320
2019-02-25T11:34:24.787Z,320
2019-02-25T11:35:38.798Z,325
2019-02-25T11:36:53.059Z,330
2019-02-25T11:38:08.943Z,335
2019-02-25T11:39:19.213Z,335
2019-02-25T11:40:35.992Z,330
2019-02-25T11:41:50.569Z,330
2019-02-25T11:43:00.543Z,335
2019-02-25T11:44:10.478Z,345
2019-02-25T11:45:20.415Z,355
2019-02-25T11:46:30.346Z,360
2019-02-25T11:47:40.377Z,355
2019-02-25T11:48:50.301Z,345
2019-02-25T11:50:00.534Z,325
2019-02-25T11:51:10.460Z,300
2019-02-25T11:52:20.393Z,280
2019-02-25T11:53:30.364Z,270
2019-02-25T11:54:40.292Z,260
2019-02-25T11:55:50.220Z,260
2019-02-25T11:57:00.158Z,260
2019-02-25T11:58:10.089Z,260
2019-02-25T11:59:20.069Z,255
2019-02-25T12:00:30.002Z,255
2019-02-25T12:01:39.975Z,250
2019-02-25T12:02:49.946Z,245
2019-02-25T12:03:59.871Z,235
2019-02-25T12:05:09.917Z,215
2019-02-25T12:06:19.847Z,210
2019-02-25T12:07:29.778Z,200
2019-02-25T12:08:39.704Z,190
2019-02-25T12:09:49.631Z,185
2019-02-25T12:10:59.607Z,175
2019-02-25T12:12:09.535Z,180
2019-02-25T12:13:19.472Z,180
2019-02-25T12:14:29.397Z,180
2019-02-25T12:15:39.318Z,175
2019-02-25T12:16:49.341Z,170
2019-02-25T12:17:59.264Z,170
2019-02-25T12:19:17.705Z,160
2019-02-25T12:20:27.876Z,155
2019-02-25T12:21:37.825Z,155
2019-02-25T12:22:47.812Z,150
2019-02-25T12:23:57.730Z,155
2019-02-25T12:25:07.651Z,160
2019-02-25T12:26:17.575Z,160
2019-02-25T12:27:27.500Z,165
2019-02-25T12:28:37.527Z,165
2019-02-25T12:29:47.628Z,170
2019-02-25T12:30:57.549Z,175
2019-02-25T12:32:07.507Z,180
2019-02-25T12:33:17.434Z,185
2019-02-25T12:34:27.456Z,190
2019-02-25T12:35:37.380Z,200
2019-02-25T12:36:47.308Z,210
2019-02-25T12:37:56.980Z,215
2019-02-25T12:39:06.904Z,220
2019-02-25T12:40:16.927Z,230
2019-02-25T12:41:27.386Z,230
2019-02-25T12:42:37.404Z,220
2019-02-25T12:43:47.325Z,215
2019-02-25T12:44:57.252Z,210
2019-02-25T12:46:07.335Z,200
2019-02-25T12:47:17.262Z,195
2019-02-25T12:48:27.602Z,190
2019-02-25T12:49:37.529Z,190
2019-02-25T12:50:47.515Z,200
2019-02-25T12:51:57.441Z,205
2019-02-25T12:53:07.368Z,210
2019-02-25T12:54:17.342Z,205
2019-02-25T12:55:27.267Z,200
2019-02-25T12:56:37.194Z,205
2019-02-25T12:57:47.166Z,215
2019-02-25T12:58:57.097Z,220
2019-02-25T13:00:07.035Z,220
2019-02-25T13:01:16.964Z,215
2019-02-25T13:02:26.895Z,215
2019-02-25T13:03:36.923Z,215
2019-02-25T13:04:46.862Z,210
2019-02-25T13:05:56.797Z,205
2019-02-25T13:07:06.743Z,205
2019-02-25T13:08:16.671Z,205
2019-02-25T13:09:26.702Z,205
2019-02-25T13:10:36.640Z,205
2019-02-25T13:11:47.196Z,210
2019-02-25T13:12:59.028Z,215
2019-02-25T13:14:08.970Z,225
2019-02-25T13:15:23.124Z,230
2019-02-25T13:16:33.057Z,245
2019-02-25T13:17:42.988Z,260
2019-02-25T13:18:52.925Z,260
2019-02-25T13:20:02.864Z,260
2019-02-25T13:21:12.850Z,270
2019-02-25T13:22:22.814Z,295
2019-02-25T13:23:32.754Z,310
2019-02-25T13:24:46.647Z,310
2019-02-25T13:25:56.600Z,310
2019-02-25T13:27:14.144Z,315
2019-02-25T13:28:30.666Z,325
2019-02-25T13:29:41.091Z,350
2019-02-25T13:30:51.104Z,365
2019-02-25T13:32:00.977Z,365
2019-02-25T13:33:11.008Z,370
2019-02-25T13:34:21.012Z,370
2019-02-25T13:35:31.024Z,365
2019-02-25T13:36:41.022Z,375
2019-02-25T13:37:51.241Z,390
2019-02-25T13:39:01.292Z,385
2019-02-25T13:40:11.344Z,385
2019-02-25T13:41:21.426Z,390
2019-02-25T13:42:31.238Z,500
2019-02-25T13:43:41.271Z,395
2019-02-25T13:44:51.349Z,365
2019-02-25T13:46:01.441Z,335
2019-02-25T13:47:11.500Z,360
2019-02-25T13:48:21.643Z,445
2019-02-25T13:49:31.764Z,465
2019-02-25T13:50:41.853Z,430
2019-02-25T13:51:51.933Z,425
2019-02-25T13:53:02.045Z,415
2019-02-25T13:54:12.185Z,410
2019-02-25T13:55:22.304Z,440
2019-02-25T13:56:32.345Z,475
2019-02-25T13:57:42.394Z,500
2019-02-25T13:58:52.429Z,495
2019-02-25T14:00:02.599Z,545
2019-02-25T14:01:13.274Z,650
2019-02-25T14:02:23.324Z,620
2019-02-25T14:03:33.121Z,795
2019-02-25T14:04:43.356Z,900
2019-02-25T14:05:53.506Z,1060
2019-02-25T14:07:03.651Z,975
2019-02-25T14:08:13.704Z,750
2019-02-25T14:09:23.700Z,595
2019-02-25T14:10:34.266Z,450
2019-02-25T14:11:44.764Z,425
2019-02-25T14:12:55.712Z,430
2019-02-25T14:14:06.445Z,425
2019-02-25T14:15:16.812Z,420
2019-02-25T14:16:27.238Z,320
2019-02-25T14:17:37.423Z,355
2019-02-25T14:18:47.648Z,745
2019-02-25T14:19:59.284Z,635
2019-02-25T14:21:09.279Z,425
2019-02-25T14:22:21.178Z,410
2019-02-25T14:23:31.205Z,485
2019-02-25T14:24:45.178Z,510
2019-02-25T14:25:57.239Z,560
2019-02-25T14:27:11.156Z,585
2019-02-25T14:28:21.726Z,465
2019-02-25T14:29:36.135Z,560
